Green Mountain, Iowa
Current Conditions -  °F | °C
As of 3:53 AM on Sunday 26 Oct 2014 (Local Time) from KMIW Reporting Station
Clear Clear  
Wind Chill: 39°   Ceiling: Unl
Heat Index: 39°   Visibility: 10mi
Dew Point: 33°   Wind: 3mph
Humidity: 79%   Direction: 60°ENE
Pressure: 30.03"   Gusts: NA
Location:  42.0801°N, 92.709°W
Report Text: KMIW 260853Z AUTO 06003KT 10SM CLR 04/01 A3003 RMK AO2 SLP169 T00390006 56008
Loading
Personal Weather Stations






























Interactive Weather Map
Tropical Storm Tracking
New forecast layout! Learn more

10-Day Weather Forecast

Advertisements
Track Severe Weather on mobile